sensor_id;sensor_type;location;lat;lon;timestamp;P1;durP1;ratioP1;P2;durP2;ratioP2
4724;SDS011;2376;53.544;10.226;2023-07-24T00:02:15;4.00;;;3.70;;
4724;SDS011;2376;53.544;10.226;2023-07-24T00:04:42;3.53;;;3.23;;
4724;SDS011;2376;53.544;10.226;2023-07-24T00:07:08;3.40;;;3.20;;
4724;SDS011;2376;53.544;10.226;2023-07-24T00:09:35;3.67;;;3.43;;
4724;SDS011;2376;53.544;10.226;2023-07-24T00:12:03;3.47;;;3.27;;
4724;SDS011;2376;53.544;10.226;2023-07-24T00:14:31;3.20;;;3.00;;
4724;SDS011;2376;53.544;10.226;2023-07-24T00:16:57;3.23;;;3.03;;
4724;SDS011;2376;53.544;10.226;2023-07-24T00:19:24;6.80;;;4.03;;
4724;SDS011;2376;53.544;10.226;2023-07-24T00:21:50;3.90;;;3.60;;
4724;SDS011;2376;53.544;10.226;2023-07-24T00:24:17;3.50;;;3.30;;
4724;SDS011;2376;53.544;10.226;2023-07-24T00:26:44;3.20;;;3.10;;
4724;SDS011;2376;53.544;10.226;2023-07-24T00:29:11;3.13;;;2.93;;
4724;SDS011;2376;53.544;10.226;2023-07-24T00:31:38;5.30;;;3.20;;
4724;SDS011;2376;53.544;10.226;2023-07-24T00:34:05;3.53;;;3.30;;
4724;SDS011;2376;53.544;10.226;2023-07-24T00:36:31;3.27;;;3.07;;
4724;SDS011;2376;53.544;10.226;2023-07-24T00:38:58;3.57;;;3.37;;
4724;SDS011;2376;53.544;10.226;2023-07-24T00:41:25;3.60;;;3.30;;
4724;SDS011;2376;53.544;10.226;2023-07-24T00:43:51;3.80;;;3.50;;
4724;SDS011;2376;53.544;10.226;2023-07-24T00:46:19;3.67;;;3.47;;
4724;SDS011;2376;53.544;10.226;2023-07-24T00:48:46;3.80;;;3.60;;
4724;SDS011;2376;53.544;10.226;2023-07-24T00:51:13;3.40;;;3.20;;
4724;SDS011;2376;53.544;10.226;2023-07-24T00:53:40;3.60;;;3.30;;
4724;SDS011;2376;53.544;10.226;2023-07-24T00:56:07;4.10;;;3.80;;
4724;SDS011;2376;53.544;10.226;2023-07-24T00:58:34;4.23;;;3.93;;
4724;SDS011;2376;53.544;10.226;2023-07-24T01:01:03;3.50;;;3.30;;
4724;SDS011;2376;53.544;10.226;2023-07-24T01:03:32;4.30;;;3.90;;
4724;SDS011;2376;53.544;10.226;2023-07-24T01:06:00;3.23;;;3.03;;
4724;SDS011;2376;53.544;10.226;2023-07-24T01:08:27;4.10;;;3.40;;
4724;SDS011;2376;53.544;10.226;2023-07-24T01:10:54;4.07;;;3.73;;
4724;SDS011;2376;53.544;10.226;2023-07-24T01:13:28;3.30;;;3.10;;
4724;SDS011;2376;53.544;10.226;2023-07-24T01:15:59;3.90;;;3.70;;
4724;SDS011;2376;53.544;10.226;2023-07-24T01:18:29;3.60;;;3.30;;
4724;SDS011;2376;53.544;10.226;2023-07-24T01:20:58;4.80;;;4.37;;
4724;SDS011;2376;53.544;10.226;2023-07-24T01:23:31;4.30;;;3.90;;
4724;SDS011;2376;53.544;10.226;2023-07-24T01:26:11;5.60;;;3.67;;
4724;SDS011;2376;53.544;10.226;2023-07-24T01:28:39;3.57;;;3.33;;
4724;SDS011;2376;53.544;10.226;2023-07-24T01:31:05;3.60;;;3.40;;
4724;SDS011;2376;53.544;10.226;2023-07-24T01:33:32;4.40;;;4.10;;
4724;SDS011;2376;53.544;10.226;2023-07-24T01:36:00;4.40;;;4.10;;
4724;SDS011;2376;53.544;10.226;2023-07-24T01:38:30;4.00;;;3.70;;
4724;SDS011;2376;53.544;10.226;2023-07-24T01:40:57;4.13;;;3.93;;
4724;SDS011;2376;53.544;10.226;2023-07-24T01:43:26;5.10;;;3.57;;
4724;SDS011;2376;53.544;10.226;2023-07-24T01:45:54;4.40;;;4.10;;
4724;SDS011;2376;53.544;10.226;2023-07-24T01:48:21;4.97;;;4.47;;
4724;SDS011;2376;53.544;10.226;2023-07-24T01:50:47;3.97;;;3.63;;
4724;SDS011;2376;53.544;10.226;2023-07-24T01:53:15;3.67;;;3.47;;
4724;SDS011;2376;53.544;10.226;2023-07-24T01:55:41;3.50;;;3.30;;
4724;SDS011;2376;53.544;10.226;2023-07-24T01:58:08;4.53;;;4.23;;
4724;SDS011;2376;53.544;10.226;2023-07-24T02:00:36;4.63;;;4.23;;
4724;SDS011;2376;53.544;10.226;2023-07-24T02:03:03;4.13;;;3.90;;
4724;SDS011;2376;53.544;10.226;2023-07-24T02:05:30;5.67;;;3.90;;
4724;SDS011;2376;53.544;10.226;2023-07-24T02:07:57;3.80;;;3.60;;
4724;SDS011;2376;53.544;10.226;2023-07-24T02:10:23;4.60;;;4.30;;
4724;SDS011;2376;53.544;10.226;2023-07-24T02:12:50;4.23;;;3.93;;
4724;SDS011;2376;53.544;10.226;2023-07-24T02:15:17;4.93;;;4.50;;
4724;SDS011;2376;53.544;10.226;2023-07-24T02:17:45;4.40;;;4.10;;
4724;SDS011;2376;53.544;10.226;2023-07-24T02:20:11;10.27;;;4.40;;
4724;SDS011;2376;53.544;10.226;2023-07-24T02:22:38;4.80;;;3.97;;
4724;SDS011;2376;53.544;10.226;2023-07-24T02:25:05;4.73;;;4.33;;
4724;SDS011;2376;53.544;10.226;2023-07-24T02:27:32;4.80;;;4.30;;
4724;SDS011;2376;53.544;10.226;2023-07-24T02:29:59;3.40;;;3.20;;
4724;SDS011;2376;53.544;10.226;2023-07-24T02:32:26;5.20;;;4.60;;
4724;SDS011;2376;53.544;10.226;2023-07-24T02:34:54;4.10;;;3.80;;
4724;SDS011;2376;53.544;10.226;2023-07-24T02:37:21;4.60;;;4.30;;
4724;SDS011;2376;53.544;10.226;2023-07-24T02:39:47;4.60;;;4.30;;
4724;SDS011;2376;53.544;10.226;2023-07-24T02:42:14;4.50;;;4.20;;
4724;SDS011;2376;53.544;10.226;2023-07-24T02:44:40;7.47;;;4.93;;
4724;SDS011;2376;53.544;10.226;2023-07-24T02:47:07;4.33;;;3.80;;
4724;SDS011;2376;53.544;10.226;2023-07-24T02:49:34;4.33;;;3.93;;
4724;SDS011;2376;53.544;10.226;2023-07-24T02:52:02;4.33;;;4.13;;
4724;SDS011;2376;53.544;10.226;2023-07-24T02:54:29;4.23;;;4.03;;
4724;SDS011;2376;53.544;10.226;2023-07-24T02:56:56;4.53;;;4.20;;
4724;SDS011;2376;53.544;10.226;2023-07-24T02:59:23;4.30;;;3.80;;
4724;SDS011;2376;53.544;10.226;2023-07-24T03:01:49;4.67;;;4.00;;
4724;SDS011;2376;53.544;10.226;2023-07-24T03:04:16;6.40;;;4.47;;
4724;SDS011;2376;53.544;10.226;2023-07-24T03:06:43;3.90;;;3.70;;
4724;SDS011;2376;53.544;10.226;2023-07-24T03:09:11;3.90;;;3.70;;
4724;SDS011;2376;53.544;10.226;2023-07-24T03:11:37;3.93;;;3.73;;
4724;SDS011;2376;53.544;10.226;2023-07-24T03:14:04;4.67;;;4.37;;
4724;SDS011;2376;53.544;10.226;2023-07-24T03:16:30;4.40;;;4.10;;
4724;SDS011;2376;53.544;10.226;2023-07-24T03:18:57;5.77;;;5.27;;
4724;SDS011;2376;53.544;10.226;2023-07-24T03:21:24;5.03;;;4.27;;
4724;SDS011;2376;53.544;10.226;2023-07-24T03:23:50;4.70;;;4.40;;
4724;SDS011;2376;53.544;10.226;2023-07-24T03:26:18;4.47;;;4.20;;
4724;SDS011;2376;53.544;10.226;2023-07-24T03:28:45;5.70;;;4.67;;
4724;SDS011;2376;53.544;10.226;2023-07-24T03:31:12;4.37;;;4.00;;
4724;SDS011;2376;53.544;10.226;2023-07-24T03:33:38;6.83;;;5.43;;
4724;SDS011;2376;53.544;10.226;2023-07-24T03:36:05;5.43;;;4.93;;
4724;SDS011;2376;53.544;10.226;2023-07-24T03:41:55;5.93;;;5.43;;
4724;SDS011;2376;53.544;10.226;2023-07-24T03:44:22;5.80;;;5.33;;
4724;SDS011;2376;53.544;10.226;2023-07-24T03:46:48;5.43;;;4.87;;
4724;SDS011;2376;53.544;10.226;2023-07-24T03:49:15;4.30;;;4.00;;
4724;SDS011;2376;53.544;10.226;2023-07-24T03:51:41;4.73;;;4.33;;
4724;SDS011;2376;53.544;10.226;2023-07-24T03:54:08;5.70;;;3.93;;
4724;SDS011;2376;53.544;10.226;2023-07-24T03:56:35;4.67;;;4.37;;
4724;SDS011;2376;53.544;10.226;2023-07-24T03:59:03;5.03;;;4.73;;
4724;SDS011;2376;53.544;10.226;2023-07-24T04:01:29;4.73;;;4.43;;
4724;SDS011;2376;53.544;10.226;2023-07-24T04:03:56;5.30;;;4.87;;
4724;SDS011;2376;53.544;10.226;2023-07-24T04:06:23;5.13;;;4.37;;
4724;SDS011;2376;53.544;10.226;2023-07-24T04:08:50;4.13;;;3.83;;
4724;SDS011;2376;53.544;10.226;2023-07-24T04:11:17;5.07;;;4.57;;
4724;SDS011;2376;53.544;10.226;2023-07-24T04:13:43;5.93;;;5.50;;
4724;SDS011;2376;53.544;10.226;2023-07-24T04:16:11;5.43;;;4.93;;
4724;SDS011;2376;53.544;10.226;2023-07-24T04:18:38;4.70;;;4.40;;
4724;SDS011;2376;53.544;10.226;2023-07-24T04:21:05;5.60;;;4.83;;
4724;SDS011;2376;53.544;10.226;2023-07-24T04:23:31;5.63;;;5.03;;
4724;SDS011;2376;53.544;10.226;2023-07-24T04:25:58;4.97;;;4.57;;
4724;SDS011;2376;53.544;10.226;2023-07-24T04:28:24;4.87;;;4.03;;
4724;SDS011;2376;53.544;10.226;2023-07-24T04:30:51;5.00;;;4.70;;
4724;SDS011;2376;53.544;10.226;2023-07-24T04:33:19;5.00;;;4.60;;
4724;SDS011;2376;53.544;10.226;2023-07-24T04:35:47;5.53;;;4.80;;
4724;SDS011;2376;53.544;10.226;2023-07-24T04:38:14;4.87;;;4.50;;
4724;SDS011;2376;53.544;10.226;2023-07-24T04:40:43;4.83;;;4.53;;
4724;SDS011;2376;53.544;10.226;2023-07-24T04:43:09;4.70;;;4.40;;
4724;SDS011;2376;53.544;10.226;2023-07-24T04:45:36;4.33;;;4.03;;
4724;SDS011;2376;53.544;10.226;2023-07-24T04:48:03;4.67;;;4.30;;
4724;SDS011;2376;53.544;10.226;2023-07-24T04:50:32;5.33;;;4.77;;
4724;SDS011;2376;53.544;10.226;2023-07-24T04:52:58;4.20;;;4.00;;
4724;SDS011;2376;53.544;10.226;2023-07-24T04:55:25;4.50;;;4.20;;
4724;SDS011;2376;53.544;10.226;2023-07-24T04:57:52;4.70;;;4.40;;
4724;SDS011;2376;53.544;10.226;2023-07-24T05:00:18;4.63;;;4.20;;
4724;SDS011;2376;53.544;10.226;2023-07-24T05:02:45;5.43;;;5.03;;
4724;SDS011;2376;53.544;10.226;2023-07-24T05:05:11;5.30;;;4.90;;
4724;SDS011;2376;53.544;10.226;2023-07-24T05:07:39;4.50;;;4.20;;
4724;SDS011;2376;53.544;10.226;2023-07-24T05:10:06;5.10;;;4.53;;
4724;SDS011;2376;53.544;10.226;2023-07-24T05:12:33;5.50;;;5.10;;
4724;SDS011;2376;53.544;10.226;2023-07-24T05:15:00;5.03;;;4.73;;
4724;SDS011;2376;53.544;10.226;2023-07-24T05:17:27;5.10;;;4.60;;
4724;SDS011;2376;53.544;10.226;2023-07-24T05:19:54;5.23;;;4.83;;
4724;SDS011;2376;53.544;10.226;2023-07-24T05:22:20;4.50;;;4.20;;
4724;SDS011;2376;53.544;10.226;2023-07-24T05:24:48;5.07;;;4.57;;
4724;SDS011;2376;53.544;10.226;2023-07-24T05:27:15;5.70;;;4.53;;
4724;SDS011;2376;53.544;10.226;2023-07-24T05:29:42;5.10;;;4.80;;
4724;SDS011;2376;53.544;10.226;2023-07-24T05:32:09;5.40;;;5.00;;
4724;SDS011;2376;53.544;10.226;2023-07-24T05:34:36;4.60;;;4.30;;
4724;SDS011;2376;53.544;10.226;2023-07-24T05:37:03;5.60;;;4.93;;
4724;SDS011;2376;53.544;10.226;2023-07-24T05:39:31;5.50;;;5.10;;
4724;SDS011;2376;53.544;10.226;2023-07-24T05:41:59;6.47;;;5.87;;
4724;SDS011;2376;53.544;10.226;2023-07-24T05:44:25;4.90;;;4.53;;
4724;SDS011;2376;53.544;10.226;2023-07-24T05:46:52;4.07;;;3.70;;
4724;SDS011;2376;53.544;10.226;2023-07-24T05:49:19;5.43;;;4.63;;
4724;SDS011;2376;53.544;10.226;2023-07-24T05:51:45;5.23;;;4.73;;
4724;SDS011;2376;53.544;10.226;2023-07-24T05:54:12;3.90;;;3.70;;
4724;SDS011;2376;53.544;10.226;2023-07-24T05:56:38;4.27;;;4.03;;
4724;SDS011;2376;53.544;10.226;2023-07-24T05:59:06;5.60;;;5.00;;
4724;SDS011;2376;53.544;10.226;2023-07-24T06:01:33;4.43;;;4.13;;
4724;SDS011;2376;53.544;10.226;2023-07-24T06:04:00;4.97;;;4.67;;
4724;SDS011;2376;53.544;10.226;2023-07-24T06:06:26;4.13;;;3.93;;
4724;SDS011;2376;53.544;10.226;2023-07-24T06:08:54;4.70;;;4.40;;
4724;SDS011;2376;53.544;10.226;2023-07-24T06:11:20;5.20;;;4.80;;
4724;SDS011;2376;53.544;10.226;2023-07-24T06:13:47;5.50;;;4.20;;
4724;SDS011;2376;53.544;10.226;2023-07-24T06:16:15;4.30;;;4.00;;
4724;SDS011;2376;53.544;10.226;2023-07-24T06:18:42;4.40;;;4.10;;
4724;SDS011;2376;53.544;10.226;2023-07-24T06:21:09;4.30;;;4.00;;
4724;SDS011;2376;53.544;10.226;2023-07-24T06:23:35;4.80;;;4.50;;
4724;SDS011;2376;53.544;10.226;2023-07-24T06:26:02;4.70;;;4.30;;
4724;SDS011;2376;53.544;10.226;2023-07-24T06:28:29;4.30;;;3.97;;
4724;SDS011;2376;53.544;10.226;2023-07-24T06:30:57;8.83;;;5.03;;
4724;SDS011;2376;53.544;10.226;2023-07-24T06:33:25;3.87;;;3.57;;
4724;SDS011;2376;53.544;10.226;2023-07-24T06:35:51;4.07;;;3.77;;
4724;SDS011;2376;53.544;10.226;2023-07-24T06:38:18;4.77;;;4.47;;
4724;SDS011;2376;53.544;10.226;2023-07-24T06:40:46;3.70;;;3.50;;
4724;SDS011;2376;53.544;10.226;2023-07-24T06:43:13;4.63;;;4.23;;
4724;SDS011;2376;53.544;10.226;2023-07-24T06:45:39;3.90;;;3.70;;
4724;SDS011;2376;53.544;10.226;2023-07-24T06:48:06;4.40;;;4.07;;
4724;SDS011;2376;53.544;10.226;2023-07-24T06:50:34;4.20;;;3.90;;
4724;SDS011;2376;53.544;10.226;2023-07-24T06:53:01;4.30;;;4.00;;
4724;SDS011;2376;53.544;10.226;2023-07-24T06:55:27;4.30;;;4.10;;
4724;SDS011;2376;53.544;10.226;2023-07-24T06:57:54;4.67;;;4.27;;
4724;SDS011;2376;53.544;10.226;2023-07-24T07:00:21;3.47;;;3.27;;
4724;SDS011;2376;53.544;10.226;2023-07-24T07:02:47;4.00;;;3.60;;
4724;SDS011;2376;53.544;10.226;2023-07-24T07:05:14;4.70;;;4.40;;
4724;SDS011;2376;53.544;10.226;2023-07-24T07:07:42;3.90;;;3.70;;
4724;SDS011;2376;53.544;10.226;2023-07-24T07:10:09;3.60;;;3.23;;
4724;SDS011;2376;53.544;10.226;2023-07-24T07:12:36;3.83;;;3.63;;
4724;SDS011;2376;53.544;10.226;2023-07-24T07:15:03;6.60;;;4.30;;
4724;SDS011;2376;53.544;10.226;2023-07-24T07:17:30;3.77;;;3.37;;
4724;SDS011;2376;53.544;10.226;2023-07-24T07:19:57;3.63;;;3.33;;
4724;SDS011;2376;53.544;10.226;2023-07-24T07:22:23;3.80;;;3.57;;
4724;SDS011;2376;53.544;10.226;2023-07-24T07:24:51;4.20;;;3.90;;
4724;SDS011;2376;53.544;10.226;2023-07-24T07:27:18;3.53;;;3.33;;
4724;SDS011;2376;53.544;10.226;2023-07-24T07:29:45;3.30;;;3.10;;
4724;SDS011;2376;53.544;10.226;2023-07-24T07:32:11;3.20;;;3.07;;
4724;SDS011;2376;53.544;10.226;2023-07-24T07:34:38;2.70;;;2.60;;
4724;SDS011;2376;53.544;10.226;2023-07-24T07:37:04;3.50;;;3.30;;
4724;SDS011;2376;53.544;10.226;2023-07-24T07:39:31;3.80;;;3.60;;
4724;SDS011;2376;53.544;10.226;2023-07-24T07:41:59;3.30;;;3.10;;
4724;SDS011;2376;53.544;10.226;2023-07-24T07:44:26;3.23;;;3.03;;
4724;SDS011;2376;53.544;10.226;2023-07-24T07:46:53;3.60;;;3.47;;
4724;SDS011;2376;53.544;10.226;2023-07-24T07:49:19;2.93;;;2.83;;
4724;SDS011;2376;53.544;10.226;2023-07-24T07:51:46;4.20;;;3.90;;
4724;SDS011;2376;53.544;10.226;2023-07-24T07:54:13;3.30;;;3.10;;
4724;SDS011;2376;53.544;10.226;2023-07-24T07:56:40;3.30;;;3.10;;
4724;SDS011;2376;53.544;10.226;2023-07-24T07:59:08;3.53;;;3.33;;
4724;SDS011;2376;53.544;10.226;2023-07-24T08:01:35;3.67;;;3.43;;
4724;SDS011;2376;53.544;10.226;2023-07-24T08:04:04;4.67;;;4.37;;
4724;SDS011;2376;53.544;10.226;2023-07-24T08:06:30;3.67;;;3.47;;
4724;SDS011;2376;53.544;10.226;2023-07-24T08:08:57;3.90;;;3.70;;
4724;SDS011;2376;53.544;10.226;2023-07-24T08:11:24;3.53;;;3.33;;
4724;SDS011;2376;53.544;10.226;2023-07-24T08:13:50;3.80;;;3.60;;
4724;SDS011;2376;53.544;10.226;2023-07-24T08:16:18;4.00;;;3.67;;
4724;SDS011;2376;53.544;10.226;2023-07-24T08:18:45;4.10;;;3.90;;
4724;SDS011;2376;53.544;10.226;2023-07-24T08:21:13;4.23;;;3.83;;
4724;SDS011;2376;53.544;10.226;2023-07-24T08:23:40;4.23;;;3.93;;
4724;SDS011;2376;53.544;10.226;2023-07-24T08:26:07;3.93;;;3.73;;
4724;SDS011;2376;53.544;10.226;2023-07-24T08:28:34;3.60;;;3.40;;
4724;SDS011;2376;53.544;10.226;2023-07-24T08:31:00;4.47;;;4.17;;
4724;SDS011;2376;53.544;10.226;2023-07-24T08:33:29;3.93;;;3.63;;
4724;SDS011;2376;53.544;10.226;2023-07-24T08:35:59;4.80;;;4.47;;
4724;SDS011;2376;53.544;10.226;2023-07-24T08:38:27;4.87;;;4.57;;
4724;SDS011;2376;53.544;10.226;2023-07-24T08:40:59;5.07;;;4.67;;
4724;SDS011;2376;53.544;10.226;2023-07-24T08:43:30;6.07;;;5.30;;
4724;SDS011;2376;53.544;10.226;2023-07-24T08:45:58;5.47;;;5.13;;
4724;SDS011;2376;53.544;10.226;2023-07-24T08:48:27;5.40;;;5.00;;
4724;SDS011;2376;53.544;10.226;2023-07-24T08:51:00;6.00;;;5.50;;
4724;SDS011;2376;53.544;10.226;2023-07-24T08:53:28;4.20;;;4.00;;
4724;SDS011;2376;53.544;10.226;2023-07-24T08:55:56;4.67;;;4.37;;
4724;SDS011;2376;53.544;10.226;2023-07-24T08:58:23;4.13;;;3.83;;
4724;SDS011;2376;53.544;10.226;2023-07-24T09:00:50;4.97;;;4.67;;
4724;SDS011;2376;53.544;10.226;2023-07-24T09:03:17;4.30;;;3.90;;
4724;SDS011;2376;53.544;10.226;2023-07-24T09:05:45;4.47;;;4.20;;
4724;SDS011;2376;53.544;10.226;2023-07-24T09:08:12;6.03;;;3.47;;
4724;SDS011;2376;53.544;10.226;2023-07-24T09:10:39;4.30;;;4.00;;
4724;SDS011;2376;53.544;10.226;2023-07-24T09:13:06;4.10;;;3.90;;
4724;SDS011;2376;53.544;10.226;2023-07-24T09:15:39;4.20;;;3.90;;
4724;SDS011;2376;53.544;10.226;2023-07-24T09:18:06;4.90;;;4.43;;
4724;SDS011;2376;53.544;10.226;2023-07-24T09:20:37;4.00;;;3.80;;
4724;SDS011;2376;53.544;10.226;2023-07-24T09:23:06;3.80;;;3.60;;
4724;SDS011;2376;53.544;10.226;2023-07-24T09:25:34;4.33;;;4.13;;
4724;SDS011;2376;53.544;10.226;2023-07-24T09:30:31;4.37;;;4.03;;
4724;SDS011;2376;53.544;10.226;2023-07-24T09:32:57;4.27;;;4.00;;
4724;SDS011;2376;53.544;10.226;2023-07-24T09:35:24;5.53;;;4.37;;
4724;SDS011;2376;53.544;10.226;2023-07-24T09:38:01;4.60;;;4.30;;
4724;SDS011;2376;53.544;10.226;2023-07-24T09:40:36;4.80;;;4.50;;
4724;SDS011;2376;53.544;10.226;2023-07-24T09:43:13;4.47;;;4.27;;
4724;SDS011;2376;53.544;10.226;2023-07-24T09:45:41;5.60;;;5.10;;
4724;SDS011;2376;53.544;10.226;2023-07-24T09:48:09;5.80;;;5.40;;
4724;SDS011;2376;53.544;10.226;2023-07-24T09:50:36;7.30;;;6.70;;
4724;SDS011;2376;53.544;10.226;2023-07-24T09:53:03;7.00;;;6.50;;
4724;SDS011;2376;53.544;10.226;2023-07-24T09:55:37;7.80;;;7.00;;
4724;SDS011;2376;53.544;10.226;2023-07-24T09:58:13;7.37;;;6.70;;
4724;SDS011;2376;53.544;10.226;2023-07-24T10:00:40;7.73;;;7.23;;
4724;SDS011;2376;53.544;10.226;2023-07-24T10:03:08;6.90;;;6.40;;
4724;SDS011;2376;53.544;10.226;2023-07-24T10:05:35;7.57;;;7.07;;
4724;SDS011;2376;53.544;10.226;2023-07-24T10:08:02;7.33;;;6.83;;
4724;SDS011;2376;53.544;10.226;2023-07-24T10:10:31;8.27;;;7.60;;
4724;SDS011;2376;53.544;10.226;2023-07-24T10:12:59;7.27;;;6.77;;
4724;SDS011;2376;53.544;10.226;2023-07-24T10:15:26;8.60;;;8.00;;
4724;SDS011;2376;53.544;10.226;2023-07-24T10:18:00;7.20;;;6.60;;
4724;SDS011;2376;53.544;10.226;2023-07-24T10:20:32;8.40;;;7.80;;
4724;SDS011;2376;53.544;10.226;2023-07-24T10:23:00;8.40;;;6.80;;
4724;SDS011;2376;53.544;10.226;2023-07-24T10:25:29;7.60;;;7.00;;
4724;SDS011;2376;53.544;10.226;2023-07-24T10:28:02;6.37;;;5.97;;
4724;SDS011;2376;53.544;10.226;2023-07-24T10:30:32;6.53;;;6.13;;
4724;SDS011;2376;53.544;10.226;2023-07-24T10:33:05;7.23;;;6.73;;
4724;SDS011;2376;53.544;10.226;2023-07-24T10:35:37;8.20;;;7.60;;
4724;SDS011;2376;53.544;10.226;2023-07-24T10:38:04;8.00;;;7.40;;
4724;SDS011;2376;53.544;10.226;2023-07-24T10:40:32;7.80;;;7.20;;
4724;SDS011;2376;53.544;10.226;2023-07-24T10:42:59;8.60;;;8.00;;
4724;SDS011;2376;53.544;10.226;2023-07-24T10:45:40;8.50;;;7.90;;
4724;SDS011;2376;53.544;10.226;2023-07-24T10:48:08;8.40;;;7.70;;
4724;SDS011;2376;53.544;10.226;2023-07-24T10:50:37;8.80;;;8.00;;
4724;SDS011;2376;53.544;10.226;2023-07-24T10:53:04;8.83;;;8.23;;
4724;SDS011;2376;53.544;10.226;2023-07-24T10:55:31;7.20;;;6.70;;
4724;SDS011;2376;53.544;10.226;2023-07-24T10:57:57;7.67;;;7.17;;
4724;SDS011;2376;53.544;10.226;2023-07-24T11:00:25;7.50;;;6.90;;
4724;SDS011;2376;53.544;10.226;2023-07-24T11:02:53;7.90;;;7.40;;
4724;SDS011;2376;53.544;10.226;2023-07-24T11:05:20;8.70;;;8.10;;
4724;SDS011;2376;53.544;10.226;2023-07-24T11:07:47;7.43;;;6.93;;
4724;SDS011;2376;53.544;10.226;2023-07-24T11:10:14;7.37;;;6.87;;
4724;SDS011;2376;53.544;10.226;2023-07-24T11:12:41;7.77;;;7.27;;
4724;SDS011;2376;53.544;10.226;2023-07-24T11:15:08;7.50;;;6.90;;
4724;SDS011;2376;53.544;10.226;2023-07-24T11:17:37;6.70;;;6.10;;
4724;SDS011;2376;53.544;10.226;2023-07-24T11:20:06;6.93;;;6.43;;
4724;SDS011;2376;53.544;10.226;2023-07-24T11:22:34;7.50;;;7.00;;
4724;SDS011;2376;53.544;10.226;2023-07-24T11:25:01;6.70;;;6.30;;
4724;SDS011;2376;53.544;10.226;2023-07-24T11:27:29;6.80;;;6.40;;
4724;SDS011;2376;53.544;10.226;2023-07-24T11:29:56;5.50;;;5.20;;
4724;SDS011;2376;53.544;10.226;2023-07-24T11:32:22;6.50;;;6.10;;
4724;SDS011;2376;53.544;10.226;2023-07-24T11:34:51;6.53;;;6.13;;
4724;SDS011;2376;53.544;10.226;2023-07-24T11:37:18;6.93;;;6.43;;
4724;SDS011;2376;53.544;10.226;2023-07-24T11:39:54;6.43;;;6.03;;
4724;SDS011;2376;53.544;10.226;2023-07-24T11:42:23;6.83;;;6.33;;
4724;SDS011;2376;53.544;10.226;2023-07-24T11:44:51;6.77;;;6.27;;
4724;SDS011;2376;53.544;10.226;2023-07-24T11:47:17;6.60;;;6.20;;
4724;SDS011;2376;53.544;10.226;2023-07-24T11:49:44;7.17;;;6.70;;
4724;SDS011;2376;53.544;10.226;2023-07-24T11:52:14;7.53;;;6.80;;
4724;SDS011;2376;53.544;10.226;2023-07-24T11:54:41;7.20;;;6.67;;
4724;SDS011;2376;53.544;10.226;2023-07-24T11:57:14;8.33;;;7.83;;
4724;SDS011;2376;53.544;10.226;2023-07-24T11:59:41;8.40;;;7.80;;
4724;SDS011;2376;53.544;10.226;2023-07-24T12:02:08;7.47;;;7.03;;
4724;SDS011;2376;53.544;10.226;2023-07-24T12:04:36;8.57;;;7.97;;
4724;SDS011;2376;53.544;10.226;2023-07-24T12:07:07;7.80;;;7.40;;
4724;SDS011;2376;53.544;10.226;2023-07-24T12:09:35;7.47;;;6.97;;
4724;SDS011;2376;53.544;10.226;2023-07-24T12:12:02;7.13;;;6.73;;
4724;SDS011;2376;53.544;10.226;2023-07-24T12:14:30;5.77;;;5.47;;
4724;SDS011;2376;53.544;10.226;2023-07-24T12:17:00;5.60;;;5.30;;
4724;SDS011;2376;53.544;10.226;2023-07-24T12:19:27;6.97;;;6.57;;
4724;SDS011;2376;53.544;10.226;2023-07-24T12:21:54;6.87;;;6.47;;
4724;SDS011;2376;53.544;10.226;2023-07-24T12:24:21;7.33;;;6.67;;
4724;SDS011;2376;53.544;10.226;2023-07-24T12:26:48;6.43;;;6.03;;
4724;SDS011;2376;53.544;10.226;2023-07-24T12:29:15;6.10;;;5.70;;
4724;SDS011;2376;53.544;10.226;2023-07-24T12:31:42;6.13;;;5.63;;
4724;SDS011;2376;53.544;10.226;2023-07-24T12:34:08;5.37;;;5.10;;
4724;SDS011;2376;53.544;10.226;2023-07-24T12:36:35;4.40;;;4.20;;
4724;SDS011;2376;53.544;10.226;2023-07-24T12:39:02;5.13;;;4.83;;
4724;SDS011;2376;53.544;10.226;2023-07-24T12:41:28;4.43;;;4.23;;
4724;SDS011;2376;53.544;10.226;2023-07-24T12:43:56;3.60;;;3.50;;
4724;SDS011;2376;53.544;10.226;2023-07-24T12:46:23;5.40;;;4.90;;
4724;SDS011;2376;53.544;10.226;2023-07-24T12:48:50;4.90;;;4.40;;
4724;SDS011;2376;53.544;10.226;2023-07-24T12:51:16;4.17;;;3.83;;
4724;SDS011;2376;53.544;10.226;2023-07-24T12:53:43;4.47;;;4.07;;
4724;SDS011;2376;53.544;10.226;2023-07-24T12:56:10;4.40;;;4.17;;
4724;SDS011;2376;53.544;10.226;2023-07-24T12:58:36;4.60;;;4.40;;
4724;SDS011;2376;53.544;10.226;2023-07-24T13:01:04;4.30;;;4.00;;
4724;SDS011;2376;53.544;10.226;2023-07-24T13:03:31;3.83;;;3.63;;
4724;SDS011;2376;53.544;10.226;2023-07-24T13:05:58;5.70;;;4.67;;
4724;SDS011;2376;53.544;10.226;2023-07-24T13:08:25;4.00;;;3.80;;
4724;SDS011;2376;53.544;10.226;2023-07-24T13:10:52;4.30;;;4.10;;
4724;SDS011;2376;53.544;10.226;2023-07-24T13:13:19;4.27;;;4.07;;
4724;SDS011;2376;53.544;10.226;2023-07-24T13:15:45;7.37;;;4.63;;
4724;SDS011;2376;53.544;10.226;2023-07-24T13:18:14;4.10;;;3.90;;
4724;SDS011;2376;53.544;10.226;2023-07-24T13:20:45;4.27;;;3.97;;
4724;SDS011;2376;53.544;10.226;2023-07-24T13:23:11;4.20;;;3.90;;
4724;SDS011;2376;53.544;10.226;2023-07-24T13:25:38;4.10;;;3.90;;
4724;SDS011;2376;53.544;10.226;2023-07-24T13:28:04;4.33;;;4.03;;
4724;SDS011;2376;53.544;10.226;2023-07-24T13:30:31;3.90;;;3.70;;
4724;SDS011;2376;53.544;10.226;2023-07-24T13:32:58;3.90;;;3.70;;
4724;SDS011;2376;53.544;10.226;2023-07-24T13:35:26;4.40;;;4.10;;
4724;SDS011;2376;53.544;10.226;2023-07-24T13:37:52;6.30;;;4.30;;
4724;SDS011;2376;53.544;10.226;2023-07-24T13:40:19;4.57;;;3.33;;
4724;SDS011;2376;53.544;10.226;2023-07-24T13:42:46;3.57;;;3.37;;
4724;SDS011;2376;53.544;10.226;2023-07-24T13:45:12;4.20;;;4.00;;
4724;SDS011;2376;53.544;10.226;2023-07-24T13:47:39;3.60;;;3.40;;
4724;SDS011;2376;53.544;10.226;2023-07-24T13:50:06;3.87;;;3.67;;
4724;SDS011;2376;53.544;10.226;2023-07-24T13:52:34;3.73;;;3.43;;
4724;SDS011;2376;53.544;10.226;2023-07-24T13:55:02;3.03;;;2.93;;
4724;SDS011;2376;53.544;10.226;2023-07-24T13:57:29;3.50;;;3.30;;
4724;SDS011;2376;53.544;10.226;2023-07-24T13:59:55;3.93;;;3.73;;
4724;SDS011;2376;53.544;10.226;2023-07-24T14:02:22;3.33;;;3.20;;
4724;SDS011;2376;53.544;10.226;2023-07-24T14:04:48;4.57;;;4.27;;
4724;SDS011;2376;53.544;10.226;2023-07-24T14:07:15;4.10;;;3.90;;
4724;SDS011;2376;53.544;10.226;2023-07-24T14:09:43;4.30;;;4.00;;
4724;SDS011;2376;53.544;10.226;2023-07-24T14:12:10;3.77;;;3.57;;
4724;SDS011;2376;53.544;10.226;2023-07-24T14:14:37;3.60;;;3.40;;
4724;SDS011;2376;53.544;10.226;2023-07-24T14:17:04;3.80;;;3.60;;
4724;SDS011;2376;53.544;10.226;2023-07-24T14:19:31;4.13;;;3.90;;
4724;SDS011;2376;53.544;10.226;2023-07-24T14:21:57;4.50;;;4.20;;
4724;SDS011;2376;53.544;10.226;2023-07-24T14:24:24;3.93;;;3.70;;
4724;SDS011;2376;53.544;10.226;2023-07-24T14:26:52;3.80;;;3.60;;
4724;SDS011;2376;53.544;10.226;2023-07-24T14:29:19;3.90;;;3.70;;
4724;SDS011;2376;53.544;10.226;2023-07-24T14:31:46;3.90;;;3.70;;
4724;SDS011;2376;53.544;10.226;2023-07-24T14:34:12;4.13;;;3.83;;
4724;SDS011;2376;53.544;10.226;2023-07-24T14:36:39;3.93;;;3.73;;
4724;SDS011;2376;53.544;10.226;2023-07-24T14:39:06;4.43;;;4.20;;
4724;SDS011;2376;53.544;10.226;2023-07-24T14:41:33;3.60;;;3.40;;
4724;SDS011;2376;53.544;10.226;2023-07-24T14:44:01;3.73;;;3.53;;
4724;SDS011;2376;53.544;10.226;2023-07-24T14:46:29;4.10;;;3.80;;
4724;SDS011;2376;53.544;10.226;2023-07-24T14:48:55;3.80;;;3.60;;
4724;SDS011;2376;53.544;10.226;2023-07-24T14:51:23;3.90;;;3.70;;
4724;SDS011;2376;53.544;10.226;2023-07-24T14:53:50;5.17;;;4.73;;
4724;SDS011;2376;53.544;10.226;2023-07-24T14:56:16;4.60;;;4.30;;
4724;SDS011;2376;53.544;10.226;2023-07-24T14:58:43;3.90;;;3.70;;
4724;SDS011;2376;53.544;10.226;2023-07-24T15:01:12;5.50;;;4.00;;
4724;SDS011;2376;53.544;10.226;2023-07-24T15:03:39;4.30;;;4.00;;
4724;SDS011;2376;53.544;10.226;2023-07-24T15:06:05;4.43;;;4.13;;
4724;SDS011;2376;53.544;10.226;2023-07-24T15:08:32;4.50;;;4.30;;